< Typhoon 198926 1989 Season Typhoon 198928 >
Typhoon 198927 (ELSIE)
General InformationTrack Information on Google MapsDetailed Wind InformationList of All Images || Disaster Info.ResourceGoogle EarthGE AnimationAtom FeedGeoJSON
Detalied Best Track (Time Zone = UTC)
Year Month Day Hour Lat. Long. Pressure (hPa) Wind (kt) Class Image Chart
1989 10 13 06 15.5 136.0 1006 0 2 Image Chart
1989 10 13 12 16.0 135.0 1004 0 2 Image Chart
1989 10 13 18 16.5 134.0 1004 0 2 Image Chart
1989 10 14 00 16.5 132.7 1002 0 2 Image Chart
1989 10 14 06 16.6 132.0 998 35 3 Image Chart
1989 10 14 12 16.8 131.3 996 40 3 Image Chart
1989 10 14 18 16.8 131.0 996 40 3 Image Chart
1989 10 15 00 16.5 131.0 992 45 3 Image Chart
1989 10 15 06 16.2 131.2 985 50 4 Image Chart
1989 10 15 12 16.3 130.9 985 50 4 Image Chart
1989 10 15 18 16.4 130.7 980 55 4 Image Chart
1989 10 16 00 16.5 130.6 975 60 4 Image Chart
1989 10 16 06 16.6 130.4 970 65 5 Image Chart
1989 10 16 12 16.8 130.0 965 70 5 Image Chart
1989 10 16 18 17.0 129.3 960 75 5 Image Chart
1989 10 17 00 17.0 128.8 950 80 5 Image Chart
1989 10 17 06 17.0 128.2 945 85 5 Image Chart
1989 10 17 12 16.8 127.5 935 90 5 Image Chart
1989 10 17 18 16.5 127.0 930 90 5 Image Chart
1989 10 18 00 16.2 126.3 925 95 5 Image Chart
1989 10 18 06 16.1 125.7 920 95 5 Image Chart
1989 10 18 12 16.2 125.1 915 100 5 Image Chart
1989 10 18 18 16.4 124.2 915 100 5 Image Chart
1989 10 19 00 16.6 123.0 915 100 5 Image Chart
1989 10 19 06 16.5 121.3 940 85 5 Image Chart
1989 10 19 12 16.5 119.8 950 80 5 Image Chart
1989 10 19 18 16.7 118.5 955 80 5 Image Chart
1989 10 20 00 17.1 117.2 960 75 5 Image Chart
1989 10 20 06 17.2 116.2 965 70 5 Image Chart
1989 10 20 12 17.4 115.2 970 65 5 Image Chart
1989 10 20 18 17.5 114.2 970 65 5 Image Chart
1989 10 21 00 17.5 112.9 975 60 4 Image Chart
1989 10 21 06 17.6 111.5 980 55 4 Image Chart
1989 10 21 12 18.0 110.1 985 50 4 Image Chart
1989 10 21 18 18.3 108.8 992 40 3 Image Chart
1989 10 22 00 18.5 107.5 998 35 3 Image Chart
1989 10 22 06 18.5 106.5 1006 0 2 Image Chart
1989 10 22 12 18.5 105.5 1012 0 2 Image Chart
Japan Meteorological Agency Best Track Data | Correction Date : 1992-10-21
< Typhoon 198926 1989 Season Typhoon 198928 >

Help